関西国際空港の過去48時間の天気

関西国際空港 (Kansai intl)

現在時刻: 5/21 14:36 JST (5/21 05:36 UTC) 以下の時間は現地時間です。

過去48時間のMETAR気象情報
時間 風向 風速(m/s) 視程 気温(℃) 湿度(%) 気圧(hPa) 天気現象
21 14:00 西南西 3 10km以上 21 69 1003
21 13:30 西 2 10km以上 21 64 1003
21 13:00 西 3 10km以上 22 60 1004
21 12:30 西北西 4 10km以上 21 60 1004
21 12:00 西北西 5 10km以上 21 60 1004
21 11:30 西北西 6 10km以上 21 64 1004
21 11:00 西北西 6 10km以上 21 69 1004
21 10:30 西北西 6 10km以上 21 69 1004
21 10:00 北西 4 10km以上 21 69 1004
21 09:30 北北西 4 10km以上 20 73 1004
21 09:27 北北西 4 10km以上 19 78 1004
21 09:00 西北西 9 10km以上 19 83 1004
21 08:30 西 9 10km以上 19 83 1004
21 08:00 西 8 10km以上 19 83 1004 周辺でしゅう雨
21 07:30 西 7 10km以上 19 88 1004 周辺でしゅう雨
21 07:00 西南西 5 10km以上 19 94 1004 周辺でしゅう雨
21 06:30 西南西 4 10km以上 18 100 1004 弱いしゅう雨
21 06:00 2 10km以上 18 94 1003 周辺でしゅう雨
21 05:30 南南東 3 10km以上 18 94 1003
21 05:00 南南東 4 10km以上 18 94 1003
21 04:30 南東 3 10km以上 17 100 1003
21 04:16 南東 4 8000m 17 100 1003 弱い雨
21 04:00 南南東 4 10km以上 17 100 1003
21 03:30 南南東 3 10km以上 17 100 1002 弱い雨
21 03:00 南南東 3 9000m 17 100 1002 弱い雨
21 02:47 南南西 3 2700m 18 100 1002 弱い雨 もや
21 02:30 西 6 1800m 18 100 1002 雨 もや
21 02:27 西 7 1300m 18 100 1002 強い雨 もや
21 02:15 西 8 1800m 18 100 1002 雨 もや
21 02:00 西 8 1400m 18 100 1002 雨 もや
21 01:46 西南西 6 2200m 18 100 1002 雨 もや
21 01:36 西 6 1300m 19 100 1002 強い雨 もや
21 01:20 西 4 800m 18 100 1002 強い雨 霧
21 01:00 西北西 5 1000m 19 100 1002 強い雨 もや
21 00:38 北北西 6 400m 19 100 1002 強い雨 霧
21 00:28 北北西 7 500m 19 100 1002 強い雨 霧
21 00:00 5 800m 18 100 1001 雨 霧
20 23:40 北北東 3 1300m 18 100 1001 強い雨 もや
20 23:22 北東 3 1100m 18 100 1002 雨 もや
20 23:13 東北東 2 1900m 18 100 1002 雨 もや
20 23:05 1 1200m 18 100 1002 雨 もや
20 23:00 1 1900m 18 100 1002 雨 もや
20 22:30 不定 1 8000m 18 100 1003 しゅう雨
20 22:00 不定 1 10km以上 18 100 1003 弱いしゅう雨
20 21:30 不定 1 10km以上 18 100 1003 弱いしゅう雨
20 21:00 東北東 2 10km以上 19 94 1004 弱いしゅう雨
20 20:30 東北東 4 10km以上 19 88 1004 弱いしゅう雨
20 20:00 北北西 3 10km以上 20 83 1005 弱いしゅう雨
20 19:30 北西 5 10km以上 20 88 1005 弱いしゅう雨
20 19:00 西北西 4 10km以上 20 83 1005 弱いしゅう雨
20 18:30 西南西 2 10km以上 22 69 1005 弱いしゅう雨
20 18:00 北北西 2 10km以上 22 69 1005 周辺でしゅう雨
20 17:30 3 10km以上 21 78 1006 弱い雨
20 17:00 5 10km以上 21 78 1006 弱い雨
20 16:30 北東 5 10km以上 21 78 1006 弱い雨
20 16:00 東南東 5 10km以上 22 65 1007 周辺でしゅう雨
20 15:30 3 10km以上 21 78 1007 弱い雨
20 15:00 西南西 2 10km以上 22 73 1007 弱い雨
20 14:30 西 2 10km以上 22 69 1007 弱い雨
20 14:00 北西 3 10km以上 23 61 1008 弱い雨
20 13:30 西北西 3 10km以上 23 61 1008 弱い雨
20 13:00 北西 2 10km以上 24 57 1008 弱い雨
20 12:30 北北西 2 10km以上 24 54 1008 周辺でしゅう雨
20 12:00 北北東 3 10km以上 23 57 1009 周辺でしゅう雨
20 11:30 3 10km以上 23 57 1009
20 11:00 3 10km以上 24 54 1009
20 10:30 北北東 3 10km以上 24 57 1010
20 10:00 2 10km以上 24 57 1010
20 09:30 北北西 2 10km以上 21 69 1011
20 09:00 2 10km以上 21 73 1011
20 08:30 不定 1 10km以上 20 78 1011
20 08:00 不定 1 10km以上 20 78 1012
20 07:30 不定 1 10km以上 20 78 1012
20 07:00 静穏 0 10km以上 19 83 1012
20 06:30 西北西 1 10km以上 19 83 1012
20 06:00 1 10km以上 18 88 1012
20 05:30 不定 1 10km以上 18 88 1012
20 05:00 不定 1 10km以上 18 88 1012 弱い雨
20 04:30 東南東 2 10km以上 18 88 1012
20 04:00 2 10km以上 18 88 1013
20 03:30 東南東 2 10km以上 18 88 1013
20 03:00 不定 1 8000m 18 88 1014
20 02:30 西北西 3 8000m 18 88 1014
20 02:00 西北西 2 8000m 18 88 1014
20 01:30 不定 1 10km以上 18 88 1014
20 01:00 西北西 2 10km以上 19 83 1015
20 00:30 不定 1 10km以上 19 83 1015
20 00:00 北西 3 10km以上 19 78 1015
19 23:30 北西 4 10km以上 19 83 1015
19 23:00 3 9000m 19 83 1016
19 22:30 北北東 2 10km以上 19 83 1016
19 22:00 2 10km以上 19 83 1016
19 21:30 西南西 2 10km以上 19 83 1016
19 21:00 西南西 3 10km以上 20 78 1016
19 20:30 西南西 4 10km以上 19 83 1016
19 20:00 西南西 2 10km以上 20 78 1015
19 19:30 南西 2 10km以上 19 83 1016
19 19:00 南西 3 10km以上 20 78 1015
19 18:30 西南西 3 10km以上 20 78 1016
19 18:00 西北西 2 10km以上 22 65 1015
19 17:30 北北東 3 10km以上 22 69 1015
19 17:00 3 10km以上 23 65 1015
19 16:30 北東 2 10km以上 22 73 1015
19 16:00 不定 1 10km以上 20 83 1016
19 15:30 西南西 2 10km以上 20 83 1016
19 15:00 西南西 4 10km以上 22 69 1016
RJBB 210500Z 25006KT 9999 FEW020 BKN/// 21/15 Q1003 NOSIG
RJBB 210430Z 26004KT 190V300 9999 FEW020 BKN/// 21/14 Q1003 NOSIG
RJBB 210400Z 28005KT 9999 FEW020 BKN/// 22/14 Q1004 NOSIG
RJBB 210330Z 29007KT 9999 FEW020 BKN/// 21/13 Q1004 NOSIG
RJBB 210300Z 29009KT 9999 FEW020 BKN/// 21/13 Q1004 NOSIG
RJBB 210230Z 30012KT 9999 FEW015 BKN/// 21/14 Q1004 NOSIG
RJBB 210200Z 30012KT 9999 FEW015 SCT030 BKN/// 21/15 Q1004 NOSIG
RJBB 210130Z 30012KT 9999 FEW008 SCT030 BKN/// 21/15 Q1004 NOSIG
RJBB 210100Z 31008KT 9999 FEW008 SCT025 BKN/// 21/15 Q1004 NOSIG
RJBB 210030Z 33007KT 9999 FEW008 SCT015 BKN/// 20/15 Q1004 NOSIG
RJBB 210027Z 34007KT 9999 FEW008 SCT015 BKN/// 19/15 Q1004 RMK 1ST008 3CU015 A2966
RJBB 210000Z 30018KT 9999 FEW008 SCT015 BKN/// 19/16 Q1004 NOSIG
RJBB 202330Z 28017KT 9999 FEW008 SCT015 BKN/// 19/16 Q1004 NOSIG
RJBB 202300Z 28015KT 9999 VCSH FEW008 SCT015 BKN025 19/16 Q1004 NOSIG
RJBB 202230Z 26013KT 9999 VCSH FEW008 SCT015 BKN025 19/17 Q1004 NOSIG
RJBB 202200Z 25009KT 9999 VCSH FEW005 BKN020 BKN030 19/18 Q1004 NOSIG
RJBB 202130Z 24007KT 9999 -SHRA FEW005 BKN015 BKN025 18/18 Q1004 BECMG 30012KT
RJBB 202100Z 19004KT 9999 VCSH FEW005 SCT015 BKN025 18/17 Q1003 NOSIG
RJBB 202030Z AUTO 16005KT 9999 FEW015 SCT025 BKN090 18/17 Q1003 NOSIG
RJBB 202000Z AUTO 15007KT 9999 FEW016 SCT060 OVC080 18/17 Q1003 NOSIG
RJBB 201930Z AUTO 14006KT 9999 BKN016 BKN060 OVC070 //////TCU 17/17 Q1003 BECMG 26012KT TEMPO FEW005 SCT008 BKN012
RJBB 201916Z AUTO 13008KT 8000 -RA SCT022 SCT038 BKN060 //////TCU 17/17 Q1003 RMK A2962 TCU 40KM NE MOV NE AND 40KM E-S MOV UNKNOWN
RJBB 201900Z AUTO 15008KT 9999 BKN022 OVC060 //////TCU 17/17 Q1003 NOSIG
RJBB 201830Z AUTO 15006KT 9999 -RA FEW035 SCT048 BKN050 //////TCU 17/17 Q1002 TEMPO 4000 -SHRA BR FEW005 BKN008 BKN015
RJBB 201800Z AUTO 16005KT 9000 -RA FEW002 SCT037 BKN043 //////TCU 17/17 Q1002 TEMPO 4000 -SHRA BR FEW005 BKN008 BKN015
RJBB 201747Z AUTO 21006KT 170V230 2700 -RA BR FEW002 SCT022 OVC041 //////TCU 18/18 Q1002 RMK A2961 TCU ALL QUAD MOV UNKNOWN
RJBB 201730Z AUTO 26011KT 1800 R24L/P2000N R06L/P2000N RA BR FEW015 SCT036 OVC042 //////TCU 18/18 Q1002 BECMG 4000 -SHRA BR TEMPO FEW005 BKN008 BKN015
RJBB 201727Z AUTO 26013KT 1300 R24L/P2000N R06L/P2000N +RA BR FEW015 SCT036 OVC042 //////TCU 18/18 Q1002 RMK A2961 RI017 TCU NE-OHD-SW MOV NE
RJBB 201715Z AUTO 27016KT 1800 R24L/P2000N R06L/P2000N RA BR FEW008 SCT033 OVC042 //////TCU 18/18 Q1002 RMK A2961 RI005 TCU ALL QUAD MOV UNKNOWN
RJBB 201700Z AUTO 26016KT 1400 R24L/P2000N R06L/2000N RA BR FEW007 SCT024 BKN033 //////TCU 18/18 Q1002 BECMG 2000 SHRA BR TEMPO FEW005 BKN008 BKN015
RJBB 201646Z AUTO 25011KT 2200 R24L/P2000N R06L/2000U RA BR FEW005 SCT009 BKN027 //////TCU 18/18 Q1002 RMK A2961 RI009 TCU OHD MOV UNKNOWN
RJBB 201636Z AUTO 26011KT 1300 R24L/P2000N R06L/2000N +RA BR BKN002 BKN009 OVC024 //////TCU 19/19 Q1002 RMK A2960 RI015 TCU ALL QUAD MOV UNKNOWN
RJBB 201620Z AUTO 28008KT 0800 R06R/P2000N R06L/2000N +RA FG FEW002 BKN007 BKN010 //////TCU 18/18 Q1002 RMK A2960 RI016 TCU ALL QUAD MOV UNKNOWN
RJBB 201600Z AUTO 29009KT 1000 R06R/P2000N R06L/1500VP2000U +RA BR FEW002 SCT009 BKN020 //////CB 19/19 Q1002 TEMPO FEW005 BKN008 BKN015 BECMG 2000 SHRA BR
RJBB 201538Z AUTO 34012KT 0400 R06R/2000U R06L/1300N +RA FG FEW003 SCT007 BKN011 //////CB 19/19 Q1002 RMK A2960 RI033 CB OHD MOV NE
RJBB 201528Z AUTO 33013KT 0500 R06R/1800U R06L/0900V1300U +RA FG FEW003 BKN013 BKN022 //////CB 19/19 Q1002 RMK A2960 RI042 CB OHD MOV NE
RJBB 201500Z AUTO 36010KT 0800 R24L/P2000N R24R/1700D RA FG BKN013 OVC036 //////TCU 18/18 Q1001 TEMPO FEW005 BKN008 BKN015 BECMG 26010KT 2000 SHRA BR
RJBB 201440Z AUTO 03006KT 1300 R24L/P2000N R24R/2000D +RA BR FEW030 SCT036 BKN039 //////TCU 18/18 Q1001 RMK A2958 RI016 TCU OHD MOV UNKNOWN
RJBB 201422Z AUTO 05005KT 1100 R24L/P2000N R06L/P2000N RA BR FEW034 SCT040 BKN043 //////TCU 18/18 Q1002 RMK A2959 RI007 TCU OHD AND 35KM SE MOV UNKNOWN
RJBB 201413Z AUTO 06003KT 1900 RA BR FEW035 SCT043 BKN044 //////TCU 18/18 Q1002 RMK A2959 RI008 TCU FM 25KM W TO 40KM NW MOV E AND 30KM N MOV NE
RJBB 201405Z AUTO 09001KT 1200 R24L/P2000N R24R/P2000N RA BR FEW039 SCT040 BKN046 //////TCU 18/18 Q1002 RMK A2960 RI006 TCU 25KM W MOV E
RJBB 201400Z AUTO 09001KT 1900 R24L/P2000N R24R/1500VP2000U RA BR FEW039 BKN046 OVC048 //////TCU 18/18 Q1002 TEMPO FEW005 BKN008 BKN015
RJBB 201330Z VRB02KT 8000 SHRA FEW008 SCT030 BKN045 18/18 Q1003 TEMPO 4000 SHRA BR
RJBB 201300Z VRB01KT 9999 -SHRA FEW010 SCT035 BKN045 18/18 Q1003 TEMPO 4000 SHRA BR
RJBB 201230Z VRB02KT 9999 -SHRA FEW010 SCT035 BKN045 18/18 Q1003 TEMPO 4000 SHRA BR
RJBB 201200Z 06003KT 030V100 9999 -SHRA FEW010 SCT035 BKN045 19/18 Q1004 TEMPO SHRA
RJBB 201130Z 07007KT 9999 -SHRA FEW010 SCT035 BKN045 19/17 Q1004 TEMPO SHRA
RJBB 201100Z 34006KT 9999 -SHRA FEW010 SCT025 BKN040 20/17 Q1005 TEMPO SHRA
RJBB 201030Z 32009KT 9999 -SHRA FEW010 SCT025 BKN045 20/18 Q1005 BECMG 06005KT TEMPO SHRA
RJBB 201000Z 30008KT 9999 -SHRA FEW010 SCT030 BKN070 20/17 Q1005 BECMG 06005KT TEMPO SHRA
RJBB 200930Z 24003KT 210V290 9999 -SHRA FEW010 SCT040 BKN070 22/16 Q1005 BECMG 06005KT TEMPO SHRA
RJBB 200900Z 33003KT 9999 VCSH FEW015 SCT040 BKN070 22/16 Q1005 TEMPO SHRA
RJBB 200830Z 36006KT 9999 -RA FEW015 SCT030 BKN050 21/17 Q1006 TEMPO SHRA
RJBB 200800Z 01010KT 9999 -RA FEW020 BKN050 BKN070 21/17 Q1006 TEMPO SHRA
RJBB 200730Z 04010KT 9999 -RA FEW020 BKN050 BKN070 21/17 Q1006 TEMPO SHRA
RJBB 200700Z 12009KT 9999 VCSH FEW020 SCT050 BKN070 22/15 Q1007 NOSIG
RJBB 200630Z 17005KT 110V200 9999 -RA FEW020 BKN050 BKN070 21/17 Q1007 BECMG 04006KT
RJBB 200600Z 25004KT 9999 -RA FEW020 BKN050 BKN070 22/17 Q1007 BECMG 04006KT
RJBB 200530Z 28003KT 240V310 9999 -RA FEW020 BKN050 BKN070 22/16 Q1007 BECMG 36005KT TEMPO SHRA
RJBB 200500Z 31006KT 9999 -RA FEW025 SCT050 BKN070 23/15 Q1008 BECMG 36005KT
RJBB 200430Z 29006KT 9999 -RA FEW025 BKN050 BKN070 23/15 Q1008 BECMG 36005KT
RJBB 200400Z 32003KT 280V360 9999 -RA FEW025 BKN050 BKN070 24/15 Q1008 NOSIG
RJBB 200330Z 33003KT 9999 VCSH FEW025 SCT050 BKN080 24/14 Q1008 NOSIG
RJBB 200300Z 02006KT 9999 VCSH FEW025 SCT050 BKN080 23/14 Q1009 NOSIG
RJBB 200230Z 36005KT 9999 FEW030 SCT050 BKN080 23/14 Q1009 NOSIG
RJBB 200200Z 01005KT 9999 FEW025 SCT050 BKN080 24/14 Q1009 NOSIG
RJBB 200130Z 02005KT 9999 FEW030 SCT050 BKN080 24/15 Q1010 NOSIG
RJBB 200100Z 01004KT 330V040 9999 FEW025 SCT050 BKN080 24/15 Q1010 NOSIG
RJBB 200030Z 34004KT 9999 FEW030 SCT050 BKN080 21/15 Q1011 NOSIG
RJBB 200000Z 36003KT 9999 FEW025 SCT050 BKN090 21/16 Q1011 NOSIG
RJBB 192330Z VRB02KT 9999 FEW025 SCT050 BKN090 20/16 Q1011 NOSIG
RJBB 192300Z VRB01KT 9999 FEW025 SCT050 BKN/// 20/16 Q1012 NOSIG
RJBB 192230Z VRB01KT 9999 FEW025 BKN050 BKN/// 20/16 Q1012 NOSIG
RJBB 192200Z 00000KT 9999 FEW025 SCT090 BKN/// 19/16 Q1012 NOSIG
RJBB 192130Z 29002KT 9999 FEW020 SCT050 BKN090 19/16 Q1012 NOSIG
RJBB 192100Z 19002KT 9999 FEW020 SCT050 BKN090 18/16 Q1012 NOSIG
RJBB 192030Z AUTO VRB02KT 9999 BKN045 OVC210 18/16 Q1012 NOSIG
RJBB 192000Z AUTO VRB01KT 9999 -RA FEW046 SCT070 BKN170 18/16 Q1012 NOSIG
RJBB 191930Z AUTO 11004KT 9999 NSC 18/16 Q1012 NOSIG
RJBB 191900Z AUTO 10003KT 9999 NSC 18/16 Q1013 NOSIG
RJBB 191830Z AUTO 11004KT 9999 NSC 18/16 Q1013 NOSIG
RJBB 191800Z AUTO VRB01KT 8000 NSC 18/16 Q1014 NOSIG
RJBB 191730Z AUTO 29005KT 8000 NSC 18/16 Q1014 BECMG 35004KT
RJBB 191700Z AUTO 30003KT 8000 NSC 18/16 Q1014 NOSIG
RJBB 191630Z AUTO VRB02KT 9999 NCD 18/16 Q1014 NOSIG
RJBB 191600Z AUTO 30003KT 200V350 9999 NSC 19/16 Q1015 NOSIG
RJBB 191530Z AUTO VRB02KT 9999 NCD 19/16 Q1015 NOSIG
RJBB 191500Z AUTO 32005KT 9999 NCD 19/15 Q1015 BECMG 03004KT
RJBB 191430Z AUTO 32007KT 9999 NCD 19/16 Q1015 BECMG 03004KT
RJBB 191400Z AUTO 01006KT 9000 NCD 19/16 Q1016 NOSIG
RJBB 191330Z 02003KT 330V060 9999 FEW025 SCT120 BKN/// 19/16 Q1016 NOSIG
RJBB 191300Z 01003KT 290V060 9999 FEW025 BKN/// 19/16 Q1016 NOSIG
RJBB 191230Z 24004KT 9999 FEW025 BKN/// 19/16 Q1016 NOSIG
RJBB 191200Z 24005KT 9999 FEW025 BKN/// 20/16 Q1016 NOSIG
RJBB 191130Z 24007KT 9999 FEW025 BKN/// 19/16 Q1016 BECMG 06004KT
RJBB 191100Z 25003KT 9999 FEW025 SCT120 BKN/// 20/16 Q1015 NOSIG
RJBB 191030Z 23004KT 160V270 9999 FEW025 SCT120 BKN/// 19/16 Q1016 NOSIG
RJBB 191000Z 23006KT 9999 FEW025 SCT120 BKN/// 20/16 Q1015 BECMG 34004KT
RJBB 190930Z 24006KT 9999 FEW025 SCT120 BKN/// 20/16 Q1016 BECMG 36004KT
RJBB 190900Z 30004KT 9999 FEW025 BKN/// 22/15 Q1015 BECMG 36005KT
RJBB 190830Z 02005KT 9999 FEW025 BKN/// 22/16 Q1015 NOSIG
RJBB 190800Z 01005KT 9999 FEW025 BKN/// 23/16 Q1015 NOSIG
RJBB 190730Z 05004KT 020V080 9999 FEW025 SCT070 BKN/// 22/17 Q1015 NOSIG
RJBB 190700Z VRB01KT 9999 FEW025 SCT060 BKN/// 20/17 Q1016 BECMG 06006KT
RJBB 190630Z 25003KT 9999 FEW025 BKN060 BKN/// 20/17 Q1016 NOSIG
RJBB 190600Z 24008KT 9999 FEW020 BKN060 BKN/// 22/16 Q1016 NOSIG